Time,TemperatureF,DewpointF,PressureIn,WindDirection,WindDirectionDegrees,WindSpeedMPH,WindSpeedGustMPH,Humidity,HourlyPrecipIn,Conditions,Clouds,dailyrainin,SoftwareType,DateUTC
2013-01-07 00:02:00,27.0,26.0,28.88,SSW,197,10.0,-999.0,95,18.46,,,-99.99,,2013-01-07 06:02:00,
2013-01-07 00:12:00,26.0,25.0,28.87,SSW,200,6.0,-999.0,96,18.46,,,-99.99,,2013-01-07 06:12:00,
2013-01-07 00:22:00,26.0,25.0,28.87,SSW,200,6.0,-999.0,96,18.46,,,-99.99,,2013-01-07 06:22:00,
2013-01-07 00:32:00,26.0,25.0,28.87,SSW,200,6.0,-999.0,96,18.46,,,-99.99,,2013-01-07 06:32:00,
2013-01-07 00:42:00,26.0,25.0,28.87,SSW,200,6.0,-999.0,96,18.46,,,-99.99,,2013-01-07 06:42:00,
2013-01-07 00:52:00,26.0,25.0,28.86,SW,215,6.0,-999.0,96,18.46,,,-99.99,,2013-01-07 06:52:00,
2013-01-07 01:02:00,26.0,25.0,28.86,SW,215,6.0,-999.0,96,18.46,,,-99.99,,2013-01-07 07:02:00,
2013-01-07 01:12:00,26.0,25.0,28.86,SW,215,6.0,-999.0,96,18.46,,,-99.99,,2013-01-07 07:12:00,
2013-01-07 01:22:00,27.0,26.0,28.86,SSW,207,8.0,-999.0,96,18.46,,,-99.99,,2013-01-07 07:22:00,
2013-01-07 01:33:00,27.0,26.0,28.86,SSW,207,8.0,-999.0,96,18.46,,,-99.99,,2013-01-07 07:33:00,
2013-01-07 01:43:00,27.0,26.0,28.86,SSW,207,8.0,-999.0,96,18.46,,,-99.99,,2013-01-07 07:43:00,
2013-01-07 01:53:00,28.0,27.0,28.84,South,186,7.0,-999.0,96,18.46,,,-99.99,,2013-01-07 07:53:00,
2013-01-07 02:02:00,28.0,27.0,28.84,South,186,7.0,-999.0,96,18.46,,,-99.99,,2013-01-07 08:02:00,
2013-01-07 02:12:00,28.0,27.0,28.84,South,186,7.0,-999.0,96,18.46,,,-99.99,,2013-01-07 08:12:00,
2013-01-07 02:22:00,27.0,26.0,28.83,SSE,148,6.0,-999.0,96,18.46,,,-99.99,,2013-01-07 08:22:00,
2013-01-07 02:33:00,27.0,26.0,28.83,SSE,148,6.0,-999.0,96,18.46,,,-99.99,,2013-01-07 08:33:00,
2013-01-07 02:43:00,27.0,26.0,28.83,SSE,148,6.0,-999.0,96,18.46,,,-99.99,,2013-01-07 08:43:00,
2013-01-07 02:53:00,29.0,28.0,28.83,SSW,204,10.0,-999.0,95,18.46,,,-99.99,,2013-01-07 08:53:00,
2013-01-07 03:02:00,29.0,28.0,28.83,SSW,204,10.0,-999.0,95,18.46,,,-99.99,,2013-01-07 09:02:00,
2013-01-07 03:12:00,29.0,28.0,28.83,SSW,204,10.0,-999.0,95,18.46,,,-99.99,,2013-01-07 09:12:00,
2013-01-07 03:22:00,31.0,29.0,28.82,South,191,10.0,-999.0,93,18.46,,,-99.99,,2013-01-07 09:22:00,
2013-01-07 03:32:00,31.0,29.0,28.82,South,191,10.0,-999.0,93,18.46,,,-99.99,,2013-01-07 09:32:00,
2013-01-07 03:42:00,31.0,29.0,28.82,South,191,10.0,-999.0,93,18.46,,,-99.99,,2013-01-07 09:42:00,
2013-01-07 03:52:00,32.0,30.0,28.81,SSW,200,17.0,-999.0,92,18.46,,,-99.99,,2013-01-07 09:52:00,
2013-01-07 04:02:00,32.0,30.0,28.81,SSW,200,17.0,-999.0,92,18.46,,,-99.99,,2013-01-07 10:02:00,
2013-01-07 04:12:00,33.0,31.0,28.80,SSW,200,12.0,-999.0,91,18.46,,,-99.99,,2013-01-07 10:12:00,
2013-01-07 04:22:00,33.0,31.0,28.80,SSW,200,12.0,-999.0,91,18.46,,,-99.99,,2013-01-07 10:22:00,
2013-01-07 04:33:00,33.0,31.0,28.80,SSW,200,12.0,-999.0,91,18.46,,,-99.99,,2013-01-07 10:33:00,
2013-01-07 04:43:00,33.0,31.0,28.80,SSW,200,12.0,-999.0,91,18.46,,,-99.99,,2013-01-07 10:43:00,
2013-01-07 04:52:00,33.0,31.0,28.79,South,191,12.0,-999.0,91,18.46,,,-99.99,,2013-01-07 10:52:00,
2013-01-07 05:02:00,33.0,31.0,28.79,South,191,12.0,-999.0,91,18.46,,,-99.99,,2013-01-07 11:02:00,
2013-01-07 05:12:00,33.0,31.0,28.79,South,191,12.0,-999.0,91,18.46,,,-99.99,,2013-01-07 11:12:00,
2013-01-07 05:22:00,33.0,31.0,28.77,South,184,13.0,-999.0,91,18.46,,,-99.99,,2013-01-07 11:22:00,
2013-01-07 05:33:00,33.0,31.0,28.77,South,184,13.0,-999.0,91,18.46,,,-99.99,,2013-01-07 11:33:00,
2013-01-07 05:43:00,33.0,31.0,28.77,South,184,13.0,-999.0,91,18.46,,,-99.99,,2013-01-07 11:43:00,
2013-01-07 05:53:00,33.0,31.0,28.77,SSW,198,10.0,-999.0,91,18.46,,,-99.99,,2013-01-07 11:53:00,
2013-01-07 06:02:00,33.0,31.0,28.77,SSW,198,10.0,-999.0,91,18.46,,,-99.99,,2013-01-07 12:02:00,
2013-01-07 06:12:00,33.0,31.0,28.77,SSW,210,8.0,-999.0,91,18.46,,,-99.99,,2013-01-07 12:12:00,
2013-01-07 06:22:00,33.0,31.0,28.77,SSW,210,8.0,-999.0,91,18.46,,,-99.99,,2013-01-07 12:22:00,
2013-01-07 06:33:00,33.0,31.0,28.77,SSW,210,8.0,-999.0,91,18.46,,,-99.99,,2013-01-07 12:33:00,
2013-01-07 06:43:00,33.0,31.0,28.77,SSW,210,8.0,-999.0,91,18.46,,,-99.99,,2013-01-07 12:43:00,
2013-01-07 06:53:00,32.0,30.0,28.77,SSW,203,7.0,-999.0,92,18.46,,,-99.99,,2013-01-07 12:53:00,
2013-01-07 07:02:00,32.0,30.0,28.77,SSW,203,7.0,-999.0,92,18.46,,,-99.99,,2013-01-07 13:02:00,
2013-01-07 07:12:00,32.0,30.0,28.77,SSW,203,7.0,-999.0,92,18.46,,,-99.99,,2013-01-07 13:12:00,
2013-01-07 07:23:00,33.0,31.0,28.77,SW,217,9.0,-999.0,91,18.46,,,-99.99,,2013-01-07 13:23:00,
2013-01-07 07:33:00,33.0,31.0,28.77,SW,217,9.0,-999.0,91,18.46,,,-99.99,,2013-01-07 13:33:00,
2013-01-07 07:43:00,33.0,31.0,28.77,SW,217,9.0,-999.0,91,18.46,,,-99.99,,2013-01-07 13:43:00,
2013-01-07 07:53:00,34.0,31.0,28.77,SSW,197,8.0,-999.0,90,18.46,,,-99.99,,2013-01-07 13:53:00,
2013-01-07 08:03:00,34.0,31.0,28.77,SSW,197,8.0,-999.0,90,18.46,,,-99.99,,2013-01-07 14:03:00,
2013-01-07 08:12:00,34.0,32.0,28.76,SSW,200,9.0,-999.0,91,18.46,,,-99.99,,2013-01-07 14:12:00,
2013-01-07 08:22:00,34.0,32.0,28.76,SSW,200,9.0,-999.0,91,18.46,,,-99.99,,2013-01-07 14:22:00,
2013-01-07 08:33:00,34.0,32.0,28.76,SSW,200,9.0,-999.0,91,18.46,,,-99.99,,2013-01-07 14:33:00,
2013-01-07 08:43:00,34.0,32.0,28.76,SSW,200,9.0,-999.0,91,18.46,,,-99.99,,2013-01-07 14:43:00,
2013-01-07 08:53:00,34.0,31.0,28.79,WSW,245,9.0,-999.0,90,18.46,,,-99.99,,2013-01-07 14:53:00,
2013-01-07 09:03:00,34.0,31.0,28.79,WSW,245,9.0,-999.0,90,18.46,,,-99.99,,2013-01-07 15:03:00,
2013-01-07 09:12:00,34.0,31.0,28.79,WSW,245,9.0,-999.0,90,18.46,,,-99.99,,2013-01-07 15:12:00,
2013-01-07 09:22:00,33.0,31.0,28.78,SW,214,7.0,-999.0,91,18.46,,,-99.99,,2013-01-07 15:22:00,
2013-01-07 09:33:00,33.0,31.0,28.78,SW,214,7.0,-999.0,91,18.46,,,-99.99,,2013-01-07 15:33:00,
2013-01-07 09:43:00,33.0,31.0,28.78,SW,214,7.0,-999.0,91,18.46,,,-99.99,,2013-01-07 15:43:00,
2013-01-07 09:53:00,33.0,31.0,28.79,SSW,208,5.0,-999.0,92,18.46,,,-99.99,,2013-01-07 15:53:00,
2013-01-07 10:02:00,33.0,31.0,28.79,SSW,208,5.0,-999.0,92,18.46,,,-99.99,,2013-01-07 16:02:00,
2013-01-07 10:12:00,33.0,31.0,28.79,SSW,208,5.0,-999.0,92,18.46,,,-99.99,,2013-01-07 16:12:00,
2013-01-07 10:22:00,34.0,32.0,28.80,SW,229,8.0,-999.0,92,18.46,,,-99.99,,2013-01-07 16:22:00,
2013-01-07 10:33:00,34.0,32.0,28.80,SW,229,8.0,-999.0,92,18.46,,,-99.99,,2013-01-07 16:33:00,
2013-01-07 10:43:00,34.0,32.0,28.80,SW,229,8.0,-999.0,92,18.46,,,-99.99,,2013-01-07 16:43:00,
2013-01-07 10:53:00,34.0,32.0,28.80,SW,235,6.0,-999.0,92,18.46,,,-99.99,,2013-01-07 16:53:00,
2013-01-07 11:02:00,34.0,32.0,28.80,SW,235,6.0,-999.0,92,18.46,,,-99.99,,2013-01-07 17:02:00,
2013-01-07 11:12:00,34.0,32.0,28.80,SW,235,6.0,-999.0,92,18.46,,,-99.99,,2013-01-07 17:12:00,
2013-01-07 11:23:00,35.0,33.0,28.80,SW,226,8.0,-999.0,91,18.46,,,-99.99,,2013-01-07 17:23:00,
2013-01-07 11:33:00,35.0,33.0,28.80,SW,226,8.0,-999.0,91,18.46,,,-99.99,,2013-01-07 17:33:00,
2013-01-07 11:43:00,35.0,33.0,28.80,SW,226,8.0,-999.0,91,18.46,,,-99.99,,2013-01-07 17:43:00,
2013-01-07 11:53:00,35.0,33.0,28.80,SW,232,7.0,-999.0,91,18.46,,,-99.99,,2013-01-07 17:53:00,
2013-01-07 12:02:00,35.0,33.0,28.80,SW,232,7.0,-999.0,91,18.46,,,-99.99,,2013-01-07 18:02:00,
2013-01-07 12:12:00,35.0,33.0,28.80,SW,232,7.0,-999.0,91,18.46,,,-99.99,,2013-01-07 18:12:00,
2013-01-07 12:23:00,36.0,34.0,28.77,SSW,195,6.0,-999.0,91,18.46,,,-99.99,,2013-01-07 18:23:00,
2013-01-07 12:33:00,36.0,34.0,28.77,SSW,195,6.0,-999.0,91,18.46,,,-99.99,,2013-01-07 18:33:00,
2013-01-07 12:43:00,36.0,34.0,28.77,SW,226,6.0,-999.0,91,18.46,,,-99.99,,2013-01-07 18:43:00,
2013-01-07 12:53:00,36.0,34.0,28.77,SW,226,6.0,-999.0,91,18.46,,,-99.99,,2013-01-07 18:53:00,
2013-01-07 13:03:00,36.0,34.0,28.77,SW,226,6.0,-999.0,91,18.46,,,-99.99,,2013-01-07 19:03:00,
2013-01-07 13:12:00,36.0,34.0,28.76,WSW,248,9.0,-999.0,91,18.46,,,-99.99,,2013-01-07 19:12:00,
2013-01-07 13:22:00,36.0,34.0,28.76,WSW,248,9.0,-999.0,91,18.46,,,-99.99,,2013-01-07 19:22:00,
2013-01-07 13:33:00,36.0,34.0,28.76,WSW,248,9.0,-999.0,91,18.46,,,-99.99,,2013-01-07 19:33:00,
2013-01-07 13:43:00,36.0,34.0,28.76,WSW,248,9.0,-999.0,91,18.46,,,-99.99,,2013-01-07 19:43:00,
2013-01-07 13:53:00,36.0,34.0,28.75,WSW,246,8.0,-999.0,91,18.46,,,-99.99,,2013-01-07 19:53:00,
2013-01-07 14:03:00,36.0,34.0,28.75,WSW,246,8.0,-999.0,91,18.46,,,-99.99,,2013-01-07 20:03:00,
2013-01-07 14:12:00,36.0,34.0,28.75,WSW,246,8.0,-999.0,91,18.46,,,-99.99,,2013-01-07 20:12:00,
2013-01-07 14:23:00,37.0,35.0,28.77,WSW,256,6.0,-999.0,91,18.46,,,-99.99,,2013-01-07 20:23:00,
2013-01-07 14:33:00,37.0,35.0,28.77,WSW,256,6.0,-999.0,91,18.46,,,-99.99,,2013-01-07 20:33:00,
2013-01-07 14:43:00,37.0,35.0,28.77,WSW,256,6.0,-999.0,91,18.46,,,-99.99,,2013-01-07 20:43:00,
2013-01-07 14:53:00,37.0,35.0,28.77,WSW,257,0.0,-999.0,91,18.46,,,-99.99,,2013-01-07 20:53:00,
2013-01-07 15:02:00,37.0,35.0,28.77,WSW,257,0.0,-999.0,91,18.46,,,-99.99,,2013-01-07 21:02:00,
2013-01-07 15:12:00,37.0,35.0,28.77,WSW,257,0.0,-999.0,91,18.46,,,-99.99,,2013-01-07 21:12:00,
2013-01-07 15:22:00,36.0,34.0,28.77,WSW,246,0.0,-999.0,91,18.46,,,-99.99,,2013-01-07 21:22:00,
2013-01-07 15:33:00,36.0,34.0,28.77,WSW,246,0.0,-999.0,91,18.46,,,-99.99,,2013-01-07 21:33:00,
2013-01-07 15:43:00,36.0,34.0,28.77,WSW,246,0.0,-999.0,91,18.46,,,-99.99,,2013-01-07 21:43:00,
2013-01-07 15:53:00,36.0,34.0,28.77,SW,217,0.0,-999.0,91,18.46,,,-99.99,,2013-01-07 21:53:00,
2013-01-07 16:02:00,36.0,34.0,28.77,SW,217,0.0,-999.0,91,18.46,,,-99.99,,2013-01-07 22:02:00,
2013-01-07 16:12:00,36.0,34.0,28.77,SW,217,0.0,-999.0,91,18.46,,,-99.99,,2013-01-07 22:12:00,
2013-01-07 16:22:00,36.0,34.0,28.77,SW,226,0.0,-999.0,91,18.46,,,-99.99,,2013-01-07 22:22:00,
2013-01-07 16:33:00,36.0,34.0,28.77,SW,226,0.0,-999.0,91,18.46,,,-99.99,,2013-01-07 22:33:00,
2013-01-07 16:43:00,36.0,34.0,28.77,SW,226,0.0,-999.0,91,18.46,,,-99.99,,2013-01-07 22:43:00,
2013-01-07 16:53:00,36.0,34.0,28.76,SW,226,0.0,-999.0,91,18.46,,,-99.99,,2013-01-07 22:53:00,
2013-01-07 17:02:00,36.0,34.0,28.76,SW,226,0.0,-999.0,91,18.46,,,-99.99,,2013-01-07 23:02:00,
2013-01-07 17:12:00,34.0,32.0,28.75,SW,226,0.0,-999.0,92,18.46,,,-99.99,,2013-01-07 23:12:00,
2013-01-07 17:22:00,34.0,32.0,28.75,SW,226,0.0,-999.0,92,18.46,,,-99.99,,2013-01-07 23:22:00,
2013-01-07 17:33:00,34.0,32.0,28.75,SW,226,0.0,-999.0,92,18.46,,,-99.99,,2013-01-07 23:33:00,
2013-01-07 17:43:00,34.0,32.0,28.75,SW,226,0.0,-999.0,92,18.46,,,-99.99,,2013-01-07 23:43:00,
2013-01-07 17:53:00,34.0,32.0,28.76,SW,226,0.0,-999.0,93,18.46,,,-99.99,,2013-01-07 23:53:00,
2013-01-07 18:02:00,34.0,32.0,28.76,SW,226,0.0,-999.0,93,18.46,,,-99.99,,2013-01-08 00:02:00,
2013-01-07 18:12:00,34.0,32.0,28.76,SW,226,0.0,-999.0,93,18.46,,,-99.99,,2013-01-08 00:12:00,
2013-01-07 18:22:00,31.0,30.0,28.77,SW,226,0.0,-999.0,95,18.46,,,-99.99,,2013-01-08 00:22:00,
2013-01-07 18:33:00,31.0,30.0,28.77,SW,226,0.0,-999.0,95,18.46,,,-99.99,,2013-01-08 00:33:00,
2013-01-07 18:43:00,31.0,30.0,28.77,SW,226,0.0,-999.0,95,18.46,,,-99.99,,2013-01-08 00:43:00,
2013-01-07 18:53:00,30.0,29.0,28.77,SW,226,0.0,-999.0,96,18.46,,,-99.99,,2013-01-08 00:53:00,
2013-01-07 19:02:00,30.0,29.0,28.77,SW,226,0.0,-999.0,96,18.46,,,-99.99,,2013-01-08 01:02:00,
2013-01-07 19:12:00,30.0,29.0,28.77,SW,226,0.0,-999.0,96,18.46,,,-99.99,,2013-01-08 01:12:00,
2013-01-07 19:22:00,29.0,28.0,28.77,SW,226,0.0,-999.0,97,18.46,,,-99.99,,2013-01-08 01:22:00,
2013-01-07 19:33:00,29.0,28.0,28.77,SW,226,0.0,-999.0,97,18.46,,,-99.99,,2013-01-08 01:33:00,
2013-01-07 19:42:00,29.0,28.0,28.77,SW,226,0.0,-999.0,97,18.46,,,-99.99,,2013-01-08 01:42:00,
2013-01-07 19:52:00,29.0,28.0,28.77,SW,226,0.0,-999.0,97,18.46,,,-99.99,,2013-01-08 01:52:00,
2013-01-07 20:02:00,29.0,28.0,28.77,SW,226,0.0,-999.0,97,18.46,,,-99.99,,2013-01-08 02:02:00,
2013-01-07 20:12:00,29.0,28.0,28.77,SW,226,0.0,-999.0,97,18.46,,,-99.99,,2013-01-08 02:12:00,
2013-01-07 20:22:00,27.0,27.0,28.76,SW,226,0.0,-999.0,98,18.46,,,-99.99,,2013-01-08 02:22:00,
2013-01-07 20:33:00,27.0,27.0,28.76,SW,226,0.0,-999.0,98,18.46,,,-99.99,,2013-01-08 02:33:00,
2013-01-07 20:43:00,27.0,27.0,28.76,SW,226,0.0,-999.0,98,18.46,,,-99.99,,2013-01-08 02:43:00,
2013-01-07 20:53:00,26.0,26.0,28.75,SW,226,0.0,-999.0,99,18.46,,,-99.99,,2013-01-08 02:53:00,
2013-01-07 21:03:00,26.0,26.0,28.75,SW,226,0.0,-999.0,99,18.46,,,-99.99,,2013-01-08 03:03:00,
2013-01-07 21:12:00,26.0,26.0,28.75,SW,226,0.0,-999.0,99,18.46,,,-99.99,,2013-01-08 03:12:00,
2013-01-07 21:22:00,23.0,23.0,28.75,SW,226,0.0,-999.0,100,18.46,,,-99.99,,2013-01-08 03:22:00,
2013-01-07 21:33:00,23.0,23.0,28.75,SW,226,0.0,-999.0,100,18.46,,,-99.99,,2013-01-08 03:33:00,
2013-01-07 21:43:00,23.0,23.0,28.75,SW,226,0.0,-999.0,100,18.46,,,-99.99,,2013-01-08 03:43:00,
2013-01-07 21:53:00,23.0,23.0,28.75,SW,226,0.0,-999.0,100,18.46,,,-99.99,,2013-01-08 03:53:00,
2013-01-07 22:02:00,23.0,23.0,28.75,SW,226,0.0,-999.0,100,18.46,,,-99.99,,2013-01-08 04:02:00,
2013-01-07 22:12:00,23.0,23.0,28.75,SW,226,0.0,-999.0,100,18.46,,,-99.99,,2013-01-08 04:12:00,
2013-01-07 22:22:00,20.0,20.0,28.74,SW,226,0.0,-999.0,100,18.46,,,-99.99,,2013-01-08 04:22:00,
2013-01-07 22:32:00,20.0,20.0,28.74,SW,226,0.0,-999.0,100,18.46,,,-99.99,,2013-01-08 04:32:00,
2013-01-07 22:43:00,20.0,20.0,28.74,SW,226,0.0,-999.0,100,18.46,,,-99.99,,2013-01-08 04:43:00,
2013-01-07 22:52:00,20.0,20.0,28.74,SW,226,0.0,-999.0,100,18.46,,,-99.99,,2013-01-08 04:52:00,
2013-01-07 23:03:00,20.0,20.0,28.74,SW,226,0.0,-999.0,100,18.46,,,-99.99,,2013-01-08 05:03:00,
2013-01-07 23:12:00,20.0,20.0,28.74,SW,226,0.0,-999.0,100,18.46,,,-99.99,,2013-01-08 05:12:00,
2013-01-07 23:22:00,19.0,19.0,28.73,SW,226,0.0,-999.0,100,18.46,,,-99.99,,2013-01-08 05:22:00,
2013-01-07 23:33:00,19.0,19.0,28.73,SW,226,0.0,-999.0,100,18.46,,,-99.99,,2013-01-08 05:33:00,
2013-01-07 23:43:00,19.0,19.0,28.73,SW,226,0.0,-999.0,100,18.46,,,-99.99,,2013-01-08 05:43:00,
2013-01-07 23:53:00,19.0,19.0,28.73,SW,226,0.0,-999.0,100,18.46,,,-99.99,,2013-01-08 05:53:00,